sensor_id;sensor_type;location;lat;lon;timestamp;pressure;altitude;pressure_sealevel;temperature
19666;BMP180;9980;51.020;7.772;2023-09-08T00:39:53;97911.00;;;14.50
19666;BMP180;9980;51.020;7.772;2023-09-08T00:42:20;97889.00;;;14.90
19666;BMP180;9980;51.020;7.772;2023-09-08T00:47:29;97891.00;;;15.40
19666;BMP180;9980;51.020;7.772;2023-09-08T00:49:56;97894.00;;;15.70
19666;BMP180;9980;51.020;7.772;2023-09-08T00:52:23;97890.00;;;15.90
19666;BMP180;9980;51.020;7.772;2023-09-08T00:54:50;97880.00;;;16.10
19666;BMP180;9980;51.020;7.772;2023-09-08T00:57:17;97883.00;;;16.30
19666;BMP180;9980;51.020;7.772;2023-09-08T00:59:45;97876.00;;;16.50
19666;BMP180;9980;51.020;7.772;2023-09-08T01:02:12;97887.00;;;16.60
19666;BMP180;9980;51.020;7.772;2023-09-08T01:04:39;97884.00;;;16.70
19666;BMP180;9980;51.020;7.772;2023-09-08T01:07:09;97872.00;;;16.80
19666;BMP180;9980;51.020;7.772;2023-09-08T01:09:37;97885.00;;;16.80
19666;BMP180;9980;51.020;7.772;2023-09-08T01:12:06;97885.00;;;16.90
19666;BMP180;9980;51.020;7.772;2023-09-08T01:14:33;97888.00;;;17.00
19666;BMP180;9980;51.020;7.772;2023-09-08T01:17:01;97879.00;;;17.00
19666;BMP180;9980;51.020;7.772;2023-09-08T01:19:29;97889.00;;;17.00
19666;BMP180;9980;51.020;7.772;2023-09-08T01:27:46;97892.00;;;17.10
19666;BMP180;9980;51.020;7.772;2023-09-08T01:30:15;97887.00;;;17.10
19666;BMP180;9980;51.020;7.772;2023-09-08T01:32:44;97884.00;;;17.10
19666;BMP180;9980;51.020;7.772;2023-09-08T01:35:11;97884.00;;;17.10
19666;BMP180;9980;51.020;7.772;2023-09-08T01:37:45;97885.00;;;17.10
19666;BMP180;9980;51.020;7.772;2023-09-08T01:40:13;97875.00;;;17.10
19666;BMP180;9980;51.020;7.772;2023-09-08T01:42:41;97881.00;;;17.10
19666;BMP180;9980;51.020;7.772;2023-09-08T01:45:08;97877.00;;;17.10
19666;BMP180;9980;51.020;7.772;2023-09-08T01:47:37;97868.00;;;17.10
19666;BMP180;9980;51.020;7.772;2023-09-08T01:50:05;97874.00;;;17.10
19666;BMP180;9980;51.020;7.772;2023-09-08T01:52:32;97864.00;;;17.10
19666;BMP180;9980;51.020;7.772;2023-09-08T01:55:00;97883.00;;;17.10
19666;BMP180;9980;51.020;7.772;2023-09-08T01:57:28;97877.00;;;17.10
19666;BMP180;9980;51.020;7.772;2023-09-08T01:59:55;97872.00;;;17.10
19666;BMP180;9980;51.020;7.772;2023-09-08T02:02:22;97865.00;;;17.10
19666;BMP180;9980;51.020;7.772;2023-09-08T02:04:49;97882.00;;;17.10
19666;BMP180;9980;51.020;7.772;2023-09-08T02:07:16;97874.00;;;17.10
19666;BMP180;9980;51.020;7.772;2023-09-08T02:09:42;97867.00;;;17.00
19666;BMP180;9980;51.020;7.772;2023-09-08T02:12:09;97868.00;;;17.00
19666;BMP180;9980;51.020;7.772;2023-09-08T02:14:36;97865.00;;;17.00
19666;BMP180;9980;51.020;7.772;2023-09-08T02:17:04;97875.00;;;17.00
19666;BMP180;9980;51.020;7.772;2023-09-08T02:19:33;97873.00;;;17.00
19666;BMP180;9980;51.020;7.772;2023-09-08T02:22:00;97859.00;;;17.00
19666;BMP180;9980;51.020;7.772;2023-09-08T02:24:29;97867.00;;;16.90
19666;BMP180;9980;51.020;7.772;2023-09-08T02:26:56;97859.00;;;16.90
19666;BMP180;9980;51.020;7.772;2023-09-08T02:29:23;97866.00;;;16.90
19666;BMP180;9980;51.020;7.772;2023-09-08T02:31:50;97865.00;;;16.90
19666;BMP180;9980;51.020;7.772;2023-09-08T02:34:17;97859.00;;;16.90
19666;BMP180;9980;51.020;7.772;2023-09-08T02:36:45;97866.00;;;16.90
19666;BMP180;9980;51.020;7.772;2023-09-08T02:39:15;97858.00;;;16.80
19666;BMP180;9980;51.020;7.772;2023-09-08T02:41:42;97850.00;;;16.80
19666;BMP180;9980;51.020;7.772;2023-09-08T02:44:09;97861.00;;;16.80
19666;BMP180;9980;51.020;7.772;2023-09-08T02:46:36;97866.00;;;16.80
19666;BMP180;9980;51.020;7.772;2023-09-08T02:49:04;97850.00;;;16.70
19666;BMP180;9980;51.020;7.772;2023-09-08T02:51:31;97857.00;;;16.70
19666;BMP180;9980;51.020;7.772;2023-09-08T02:53:58;97858.00;;;16.70
19666;BMP180;9980;51.020;7.772;2023-09-08T02:56:25;97847.00;;;16.70
19666;BMP180;9980;51.020;7.772;2023-09-08T02:58:52;97861.00;;;16.70
19666;BMP180;9980;51.020;7.772;2023-09-08T03:01:19;97847.00;;;16.60
19666;BMP180;9980;51.020;7.772;2023-09-08T03:03:47;97854.00;;;16.60
19666;BMP180;9980;51.020;7.772;2023-09-08T03:06:19;97853.00;;;16.60
19666;BMP180;9980;51.020;7.772;2023-09-08T03:08:48;97847.00;;;16.50
19666;BMP180;9980;51.020;7.772;2023-09-08T03:11:15;97864.00;;;16.50
19666;BMP180;9980;51.020;7.772;2023-09-08T03:13:42;97854.00;;;16.50
19666;BMP180;9980;51.020;7.772;2023-09-08T03:16:09;97857.00;;;16.50
19666;BMP180;9980;51.020;7.772;2023-09-08T03:18:38;97845.00;;;16.50
19666;BMP180;9980;51.020;7.772;2023-09-08T03:21:06;97861.00;;;16.40
19666;BMP180;9980;51.020;7.772;2023-09-08T03:23:42;97852.00;;;16.40
19666;BMP180;9980;51.020;7.772;2023-09-08T03:26:10;97852.00;;;16.40
19666;BMP180;9980;51.020;7.772;2023-09-08T03:28:38;97848.00;;;16.30
19666;BMP180;9980;51.020;7.772;2023-09-08T03:31:08;97846.00;;;16.30
19666;BMP180;9980;51.020;7.772;2023-09-08T03:33:35;97838.00;;;16.30
19666;BMP180;9980;51.020;7.772;2023-09-08T03:36:04;97842.00;;;16.30
19666;BMP180;9980;51.020;7.772;2023-09-08T03:38:32;97830.00;;;16.30
19666;BMP180;9980;51.020;7.772;2023-09-08T03:41:00;97837.00;;;16.20
19666;BMP180;9980;51.020;7.772;2023-09-08T03:43:27;97827.00;;;16.20
19666;BMP180;9980;51.020;7.772;2023-09-08T03:45:56;97841.00;;;16.20
19666;BMP180;9980;51.020;7.772;2023-09-08T03:48:23;97837.00;;;16.20
19666;BMP180;9980;51.020;7.772;2023-09-08T03:50:50;97840.00;;;16.10
19666;BMP180;9980;51.020;7.772;2023-09-08T03:53:17;97834.00;;;16.10
19666;BMP180;9980;51.020;7.772;2023-09-08T03:55:45;97837.00;;;16.10
19666;BMP180;9980;51.020;7.772;2023-09-08T03:58:13;97844.00;;;16.00
19666;BMP180;9980;51.020;7.772;2023-09-08T04:00:40;97832.00;;;16.00
19666;BMP180;9980;51.020;7.772;2023-09-08T04:03:08;97834.00;;;16.00
19666;BMP180;9980;51.020;7.772;2023-09-08T04:05:35;97827.00;;;16.00
19666;BMP180;9980;51.020;7.772;2023-09-08T04:08:02;97832.00;;;15.90
19666;BMP180;9980;51.020;7.772;2023-09-08T04:10:29;97830.00;;;15.90
19666;BMP180;9980;51.020;7.772;2023-09-08T04:12:56;97823.00;;;15.90
19666;BMP180;9980;51.020;7.772;2023-09-08T04:15:23;97839.00;;;15.90
19666;BMP180;9980;51.020;7.772;2023-09-08T04:17:50;97823.00;;;15.80
19666;BMP180;9980;51.020;7.772;2023-09-08T04:20:17;97837.00;;;15.80
19666;BMP180;9980;51.020;7.772;2023-09-08T04:22:44;97844.00;;;15.80
19666;BMP180;9980;51.020;7.772;2023-09-08T04:25:11;97836.00;;;15.80
19666;BMP180;9980;51.020;7.772;2023-09-08T04:27:38;97827.00;;;15.80
19666;BMP180;9980;51.020;7.772;2023-09-08T04:30:07;97823.00;;;15.70
19666;BMP180;9980;51.020;7.772;2023-09-08T04:32:34;97839.00;;;15.70
19666;BMP180;9980;51.020;7.772;2023-09-08T04:35:01;97831.00;;;15.70
19666;BMP180;9980;51.020;7.772;2023-09-08T04:37:28;97837.00;;;15.70
19666;BMP180;9980;51.020;7.772;2023-09-08T04:39:57;97832.00;;;15.60
19666;BMP180;9980;51.020;7.772;2023-09-08T04:42:24;97836.00;;;15.60
19666;BMP180;9980;51.020;7.772;2023-09-08T04:44:52;97842.00;;;15.60
19666;BMP180;9980;51.020;7.772;2023-09-08T04:47:20;97845.00;;;15.60
19666;BMP180;9980;51.020;7.772;2023-09-08T04:49:47;97844.00;;;15.60
19666;BMP180;9980;51.020;7.772;2023-09-08T04:52:14;97844.00;;;15.60
19666;BMP180;9980;51.020;7.772;2023-09-08T04:54:42;97846.00;;;15.50
19666;BMP180;9980;51.020;7.772;2023-09-08T04:57:09;97844.00;;;15.50
19666;BMP180;9980;51.020;7.772;2023-09-08T04:59:50;97855.00;;;15.50
19666;BMP180;9980;51.020;7.772;2023-09-08T05:02:18;97838.00;;;15.50
19666;BMP180;9980;51.020;7.772;2023-09-08T05:04:46;97847.00;;;15.50
19666;BMP180;9980;51.020;7.772;2023-09-08T05:07:13;97849.00;;;15.40
19666;BMP180;9980;51.020;7.772;2023-09-08T05:09:41;97843.00;;;15.40
19666;BMP180;9980;51.020;7.772;2023-09-08T05:12:08;97844.00;;;15.40
19666;BMP180;9980;51.020;7.772;2023-09-08T05:14:36;97855.00;;;15.40
19666;BMP180;9980;51.020;7.772;2023-09-08T05:17:03;97845.00;;;15.40
19666;BMP180;9980;51.020;7.772;2023-09-08T05:19:31;97851.00;;;15.40
19666;BMP180;9980;51.020;7.772;2023-09-08T05:21:58;97845.00;;;15.40
19666;BMP180;9980;51.020;7.772;2023-09-08T05:24:25;97850.00;;;15.40
19666;BMP180;9980;51.020;7.772;2023-09-08T05:26:53;97860.00;;;15.40
19666;BMP180;9980;51.020;7.772;2023-09-08T05:29:21;97841.00;;;15.40
19666;BMP180;9980;51.020;7.772;2023-09-08T05:31:48;97845.00;;;15.40
19666;BMP180;9980;51.020;7.772;2023-09-08T05:34:15;97852.00;;;15.40
19666;BMP180;9980;51.020;7.772;2023-09-08T05:36:44;97859.00;;;15.40
19666;BMP180;9980;51.020;7.772;2023-09-08T05:39:13;97848.00;;;15.40
19666;BMP180;9980;51.020;7.772;2023-09-08T05:41:41;97850.00;;;15.40
19666;BMP180;9980;51.020;7.772;2023-09-08T05:44:08;97840.00;;;15.40
19666;BMP180;9980;51.020;7.772;2023-09-08T05:46:35;97844.00;;;15.40
19666;BMP180;9980;51.020;7.772;2023-09-08T05:49:02;97857.00;;;15.50
19666;BMP180;9980;51.020;7.772;2023-09-08T05:51:31;97848.00;;;15.50
19666;BMP180;9980;51.020;7.772;2023-09-08T05:53:58;97854.00;;;15.50
19666;BMP180;9980;51.020;7.772;2023-09-08T05:56:30;97868.00;;;15.60
19666;BMP180;9980;51.020;7.772;2023-09-08T05:58:58;97854.00;;;15.60
19666;BMP180;9980;51.020;7.772;2023-09-08T06:01:26;97862.00;;;15.70
19666;BMP180;9980;51.020;7.772;2023-09-08T06:03:53;97864.00;;;15.70
19666;BMP180;9980;51.020;7.772;2023-09-08T06:06:22;97866.00;;;15.80
19666;BMP180;9980;51.020;7.772;2023-09-08T06:08:49;97864.00;;;15.80
19666;BMP180;9980;51.020;7.772;2023-09-08T06:11:17;97857.00;;;15.90
19666;BMP180;9980;51.020;7.772;2023-09-08T06:13:44;97852.00;;;15.90
19666;BMP180;9980;51.020;7.772;2023-09-08T06:16:11;97847.00;;;16.00
19666;BMP180;9980;51.020;7.772;2023-09-08T06:18:39;97862.00;;;16.00
19666;BMP180;9980;51.020;7.772;2023-09-08T06:21:13;97844.00;;;16.10
19666;BMP180;9980;51.020;7.772;2023-09-08T06:23:41;97849.00;;;16.20
19666;BMP180;9980;51.020;7.772;2023-09-08T06:26:08;97845.00;;;16.30
19666;BMP180;9980;51.020;7.772;2023-09-08T06:28:36;97842.00;;;16.40
19666;BMP180;9980;51.020;7.772;2023-09-08T06:31:05;97850.00;;;16.40
19666;BMP180;9980;51.020;7.772;2023-09-08T06:33:32;97859.00;;;16.50
19666;BMP180;9980;51.020;7.772;2023-09-08T06:35:59;97854.00;;;16.60
19666;BMP180;9980;51.020;7.772;2023-09-08T06:38:26;97839.00;;;16.70
19666;BMP180;9980;51.020;7.772;2023-09-08T06:40:53;97845.00;;;16.80
19666;BMP180;9980;51.020;7.772;2023-09-08T06:43:20;97839.00;;;16.90
19666;BMP180;9980;51.020;7.772;2023-09-08T06:45:57;97841.00;;;17.00
19666;BMP180;9980;51.020;7.772;2023-09-08T06:48:24;97843.00;;;17.10
19666;BMP180;9980;51.020;7.772;2023-09-08T06:50:54;97839.00;;;17.20
19666;BMP180;9980;51.020;7.772;2023-09-08T06:53:24;97848.00;;;17.30
19666;BMP180;9980;51.020;7.772;2023-09-08T06:55:52;97837.00;;;17.40
19666;BMP180;9980;51.020;7.772;2023-09-08T06:58:19;97839.00;;;17.50
19666;BMP180;9980;51.020;7.772;2023-09-08T07:00:47;97833.00;;;17.70
19666;BMP180;9980;51.020;7.772;2023-09-08T07:03:16;97844.00;;;17.80
19666;BMP180;9980;51.020;7.772;2023-09-08T07:05:44;97839.00;;;17.90
19666;BMP180;9980;51.020;7.772;2023-09-08T07:08:11;97824.00;;;18.00
19666;BMP180;9980;51.020;7.772;2023-09-08T07:10:38;97849.00;;;18.20
19666;BMP180;9980;51.020;7.772;2023-09-08T07:13:05;97837.00;;;18.30
19666;BMP180;9980;51.020;7.772;2023-09-08T07:15:32;97844.00;;;18.50
19666;BMP180;9980;51.020;7.772;2023-09-08T07:18:00;97833.00;;;18.60
19666;BMP180;9980;51.020;7.772;2023-09-08T07:20:29;97838.00;;;18.80
19666;BMP180;9980;51.020;7.772;2023-09-08T07:22:57;97835.00;;;18.90
19666;BMP180;9980;51.020;7.772;2023-09-08T07:25:24;97834.00;;;19.10
19666;BMP180;9980;51.020;7.772;2023-09-08T07:27:51;97846.00;;;19.20
19666;BMP180;9980;51.020;7.772;2023-09-08T07:30:21;97850.00;;;19.40
19666;BMP180;9980;51.020;7.772;2023-09-08T07:32:49;97844.00;;;19.60
19666;BMP180;9980;51.020;7.772;2023-09-08T07:35:16;97844.00;;;19.70
19666;BMP180;9980;51.020;7.772;2023-09-08T07:37:44;97840.00;;;19.90
19666;BMP180;9980;51.020;7.772;2023-09-08T07:40:12;97847.00;;;20.10
19666;BMP180;9980;51.020;7.772;2023-09-08T07:42:39;97834.00;;;20.30
19666;BMP180;9980;51.020;7.772;2023-09-08T07:45:07;97836.00;;;20.50
19666;BMP180;9980;51.020;7.772;2023-09-08T07:47:36;97846.00;;;20.70
19666;BMP180;9980;51.020;7.772;2023-09-08T07:50:24;97843.00;;;20.90
19666;BMP180;9980;51.020;7.772;2023-09-08T07:52:55;97837.00;;;21.10
19666;BMP180;9980;51.020;7.772;2023-09-08T07:55:23;97833.00;;;21.30
19666;BMP180;9980;51.020;7.772;2023-09-08T07:57:54;97828.00;;;21.50
19666;BMP180;9980;51.020;7.772;2023-09-08T08:00:22;97841.00;;;21.70
19666;BMP180;9980;51.020;7.772;2023-09-08T08:02:51;97832.00;;;21.90
19666;BMP180;9980;51.020;7.772;2023-09-08T08:05:20;97834.00;;;22.10
19666;BMP180;9980;51.020;7.772;2023-09-08T08:07:47;97831.00;;;22.30
19666;BMP180;9980;51.020;7.772;2023-09-08T08:10:14;97826.00;;;22.50
19666;BMP180;9980;51.020;7.772;2023-09-08T08:12:42;97829.00;;;22.70
19666;BMP180;9980;51.020;7.772;2023-09-08T08:15:10;97830.00;;;22.80
19666;BMP180;9980;51.020;7.772;2023-09-08T08:17:38;97820.00;;;23.00
19666;BMP180;9980;51.020;7.772;2023-09-08T08:20:08;97815.00;;;23.20
19666;BMP180;9980;51.020;7.772;2023-09-08T08:22:37;97829.00;;;23.40
19666;BMP180;9980;51.020;7.772;2023-09-08T08:25:04;97820.00;;;23.50
19666;BMP180;9980;51.020;7.772;2023-09-08T08:27:32;97834.00;;;23.70
19666;BMP180;9980;51.020;7.772;2023-09-08T08:30:00;97828.00;;;23.90
19666;BMP180;9980;51.020;7.772;2023-09-08T08:32:28;97836.00;;;24.00
19666;BMP180;9980;51.020;7.772;2023-09-08T08:34:55;97834.00;;;24.20
19666;BMP180;9980;51.020;7.772;2023-09-08T08:37:23;97828.00;;;24.30
19666;BMP180;9980;51.020;7.772;2023-09-08T08:39:50;97838.00;;;24.50
19666;BMP180;9980;51.020;7.772;2023-09-08T08:42:17;97837.00;;;24.60
19666;BMP180;9980;51.020;7.772;2023-09-08T08:44:49;97828.00;;;24.80
19666;BMP180;9980;51.020;7.772;2023-09-08T08:47:18;97836.00;;;24.90
19666;BMP180;9980;51.020;7.772;2023-09-08T08:49:48;97835.00;;;25.00
19666;BMP180;9980;51.020;7.772;2023-09-08T08:52:17;97834.00;;;25.20
19666;BMP180;9980;51.020;7.772;2023-09-08T08:54:45;97812.00;;;25.40
19666;BMP180;9980;51.020;7.772;2023-09-08T08:57:13;97831.00;;;25.50
19666;BMP180;9980;51.020;7.772;2023-09-08T08:59:40;97831.00;;;25.60
19666;BMP180;9980;51.020;7.772;2023-09-08T09:02:12;97827.00;;;25.80
19666;BMP180;9980;51.020;7.772;2023-09-08T09:04:41;97825.00;;;25.90
19666;BMP180;9980;51.020;7.772;2023-09-08T09:07:08;97834.00;;;26.10
19666;BMP180;9980;51.020;7.772;2023-09-08T09:09:35;97827.00;;;26.20
19666;BMP180;9980;51.020;7.772;2023-09-08T09:12:02;97825.00;;;26.30
19666;BMP180;9980;51.020;7.772;2023-09-08T09:14:33;97825.00;;;26.40
19666;BMP180;9980;51.020;7.772;2023-09-08T09:17:03;97827.00;;;26.60
19666;BMP180;9980;51.020;7.772;2023-09-08T09:19:32;97834.00;;;26.70
19666;BMP180;9980;51.020;7.772;2023-09-08T09:21:59;97821.00;;;26.80
19666;BMP180;9980;51.020;7.772;2023-09-08T09:24:41;97818.00;;;26.90
19666;BMP180;9980;51.020;7.772;2023-09-08T09:27:11;97822.00;;;27.00
19666;BMP180;9980;51.020;7.772;2023-09-08T09:29:49;97826.00;;;27.10
19666;BMP180;9980;51.020;7.772;2023-09-08T09:32:23;97811.00;;;27.20
19666;BMP180;9980;51.020;7.772;2023-09-08T09:34:54;97821.00;;;27.30
19666;BMP180;9980;51.020;7.772;2023-09-08T09:37:21;97807.00;;;27.50
19666;BMP180;9980;51.020;7.772;2023-09-08T09:39:54;97818.00;;;27.60
19666;BMP180;9980;51.020;7.772;2023-09-08T09:42:22;97809.00;;;27.70
19666;BMP180;9980;51.020;7.772;2023-09-08T09:44:51;97807.00;;;27.80
19666;BMP180;9980;51.020;7.772;2023-09-08T09:47:19;97801.00;;;27.90
19666;BMP180;9980;51.020;7.772;2023-09-08T09:49:48;97807.00;;;28.00
19666;BMP180;9980;51.020;7.772;2023-09-08T09:52:23;97822.00;;;28.10
19666;BMP180;9980;51.020;7.772;2023-09-08T09:54:53;97813.00;;;28.20
19666;BMP180;9980;51.020;7.772;2023-09-08T09:57:22;97814.00;;;28.30
19666;BMP180;9980;51.020;7.772;2023-09-08T09:59:51;97823.00;;;28.50
19666;BMP180;9980;51.020;7.772;2023-09-08T10:02:20;97818.00;;;28.60
19666;BMP180;9980;51.020;7.772;2023-09-08T10:04:49;97824.00;;;28.60
19666;BMP180;9980;51.020;7.772;2023-09-08T10:07:18;97820.00;;;28.80
19666;BMP180;9980;51.020;7.772;2023-09-08T10:09:46;97811.00;;;28.80
19666;BMP180;9980;51.020;7.772;2023-09-08T10:12:15;97818.00;;;28.90
19666;BMP180;9980;51.020;7.772;2023-09-08T10:14:44;97814.00;;;29.00
19666;BMP180;9980;51.020;7.772;2023-09-08T10:17:18;97806.00;;;29.10
19666;BMP180;9980;51.020;7.772;2023-09-08T10:19:48;97806.00;;;29.20
19666;BMP180;9980;51.020;7.772;2023-09-08T10:22:26;97814.00;;;29.30
19666;BMP180;9980;51.020;7.772;2023-09-08T10:24:57;97813.00;;;29.40
19666;BMP180;9980;51.020;7.772;2023-09-08T10:27:26;97811.00;;;29.40
19666;BMP180;9980;51.020;7.772;2023-09-08T10:29:54;97819.00;;;29.50
19666;BMP180;9980;51.020;7.772;2023-09-08T10:32:22;97805.00;;;29.60
19666;BMP180;9980;51.020;7.772;2023-09-08T10:34:50;97821.00;;;29.70
19666;BMP180;9980;51.020;7.772;2023-09-08T10:37:26;97818.00;;;29.70
19666;BMP180;9980;51.020;7.772;2023-09-08T10:43:06;97806.00;;;29.80
19666;BMP180;9980;51.020;7.772;2023-09-08T10:45:33;97815.00;;;30.00
19666;BMP180;9980;51.020;7.772;2023-09-08T10:48:01;97819.00;;;30.00
19666;BMP180;9980;51.020;7.772;2023-09-08T10:50:35;97810.00;;;30.10
19666;BMP180;9980;51.020;7.772;2023-09-08T10:53:17;97813.00;;;30.10
19666;BMP180;9980;51.020;7.772;2023-09-08T10:55:49;97813.00;;;30.20
19666;BMP180;9980;51.020;7.772;2023-09-08T10:58:36;97806.00;;;30.20
19666;BMP180;9980;51.020;7.772;2023-09-08T11:01:05;97809.00;;;30.30
19666;BMP180;9980;51.020;7.772;2023-09-08T11:06:06;97809.00;;;30.40
19666;BMP180;9980;51.020;7.772;2023-09-08T11:08:36;97807.00;;;30.50
19666;BMP180;9980;51.020;7.772;2023-09-08T11:11:04;97814.00;;;30.50
19666;BMP180;9980;51.020;7.772;2023-09-08T11:13:31;97823.00;;;30.50
19666;BMP180;9980;51.020;7.772;2023-09-08T11:15:58;97817.00;;;30.60
19666;BMP180;9980;51.020;7.772;2023-09-08T11:18:30;97811.00;;;30.60
19666;BMP180;9980;51.020;7.772;2023-09-08T11:20:58;97809.00;;;30.70
19666;BMP180;9980;51.020;7.772;2023-09-08T11:23:25;97815.00;;;30.80
19666;BMP180;9980;51.020;7.772;2023-09-08T11:25:53;97797.00;;;30.80
19666;BMP180;9980;51.020;7.772;2023-09-08T11:28:24;97809.00;;;30.90
19666;BMP180;9980;51.020;7.772;2023-09-08T11:30:52;97808.00;;;30.90
19666;BMP180;9980;51.020;7.772;2023-09-08T11:33:22;97807.00;;;31.00
19666;BMP180;9980;51.020;7.772;2023-09-08T11:35:55;97807.00;;;31.10
19666;BMP180;9980;51.020;7.772;2023-09-08T11:38:29;97804.00;;;31.10
19666;BMP180;9980;51.020;7.772;2023-09-08T11:40:58;97812.00;;;31.20
19666;BMP180;9980;51.020;7.772;2023-09-08T11:43:26;97806.00;;;31.20
19666;BMP180;9980;51.020;7.772;2023-09-08T11:45:55;97804.00;;;31.30
19666;BMP180;9980;51.020;7.772;2023-09-08T11:48:24;97809.00;;;31.30
19666;BMP180;9980;51.020;7.772;2023-09-08T11:50:55;97805.00;;;31.30
19666;BMP180;9980;51.020;7.772;2023-09-08T11:53:23;97795.00;;;31.40
19666;BMP180;9980;51.020;7.772;2023-09-08T11:55:50;97795.00;;;31.50
19666;BMP180;9980;51.020;7.772;2023-09-08T11:58:19;97801.00;;;31.50
19666;BMP180;9980;51.020;7.772;2023-09-08T12:00:47;97809.00;;;31.60
19666;BMP180;9980;51.020;7.772;2023-09-08T12:03:17;97799.00;;;31.70
19666;BMP180;9980;51.020;7.772;2023-09-08T12:05:51;97803.00;;;31.70
19666;BMP180;9980;51.020;7.772;2023-09-08T12:08:18;97804.00;;;31.80
19666;BMP180;9980;51.020;7.772;2023-09-08T12:10:45;97796.00;;;31.80
19666;BMP180;9980;51.020;7.772;2023-09-08T12:13:12;97779.00;;;31.90
19666;BMP180;9980;51.020;7.772;2023-09-08T12:15:42;97775.00;;;31.90
19666;BMP180;9980;51.020;7.772;2023-09-08T12:18:13;97784.00;;;32.00
19666;BMP180;9980;51.020;7.772;2023-09-08T12:20:43;97781.00;;;32.00
19666;BMP180;9980;51.020;7.772;2023-09-08T12:23:19;97781.00;;;32.10
19666;BMP180;9980;51.020;7.772;2023-09-08T12:25:49;97787.00;;;32.10
19666;BMP180;9980;51.020;7.772;2023-09-08T12:28:20;97785.00;;;32.20
19666;BMP180;9980;51.020;7.772;2023-09-08T12:30:49;97781.00;;;32.30
19666;BMP180;9980;51.020;7.772;2023-09-08T12:33:17;97776.00;;;32.30
19666;BMP180;9980;51.020;7.772;2023-09-08T12:35:48;97777.00;;;32.40
19666;BMP180;9980;51.020;7.772;2023-09-08T12:38:18;97776.00;;;32.40
19666;BMP180;9980;51.020;7.772;2023-09-08T12:40:45;97775.00;;;32.40
19666;BMP180;9980;51.020;7.772;2023-09-08T12:43:12;97768.00;;;32.50
19666;BMP180;9980;51.020;7.772;2023-09-08T12:45:54;97769.00;;;32.50
19666;BMP180;9980;51.020;7.772;2023-09-08T12:48:22;97772.00;;;32.60
19666;BMP180;9980;51.020;7.772;2023-09-08T12:50:49;97771.00;;;32.60
19666;BMP180;9980;51.020;7.772;2023-09-08T12:53:17;97781.00;;;32.60
19666;BMP180;9980;51.020;7.772;2023-09-08T12:55:46;97777.00;;;32.60
19666;BMP180;9980;51.020;7.772;2023-09-08T12:58:14;97773.00;;;32.70
19666;BMP180;9980;51.020;7.772;2023-09-08T13:00:42;97770.00;;;32.70
19666;BMP180;9980;51.020;7.772;2023-09-08T13:03:09;97768.00;;;32.80
19666;BMP180;9980;51.020;7.772;2023-09-08T13:05:36;97773.00;;;32.80
19666;BMP180;9980;51.020;7.772;2023-09-08T13:08:05;97767.00;;;32.80
19666;BMP180;9980;51.020;7.772;2023-09-08T13:10:32;97765.00;;;32.80
19666;BMP180;9980;51.020;7.772;2023-09-08T13:13:00;97762.00;;;32.90
19666;BMP180;9980;51.020;7.772;2023-09-08T13:15:27;97758.00;;;32.90
19666;BMP180;9980;51.020;7.772;2023-09-08T13:17:55;97749.00;;;32.90
19666;BMP180;9980;51.020;7.772;2023-09-08T13:20:22;97761.00;;;33.00
19666;BMP180;9980;51.020;7.772;2023-09-08T13:22:49;97751.00;;;33.00
19666;BMP180;9980;51.020;7.772;2023-09-08T13:25:16;97760.00;;;33.00
19666;BMP180;9980;51.020;7.772;2023-09-08T13:27:43;97758.00;;;33.10
19666;BMP180;9980;51.020;7.772;2023-09-08T13:30:14;97744.00;;;33.10
19666;BMP180;9980;51.020;7.772;2023-09-08T13:32:42;97752.00;;;33.10
19666;BMP180;9980;51.020;7.772;2023-09-08T13:35:10;97753.00;;;33.10
19666;BMP180;9980;51.020;7.772;2023-09-08T13:37:37;97750.00;;;33.20
19666;BMP180;9980;51.020;7.772;2023-09-08T13:40:07;97762.00;;;33.20
19666;BMP180;9980;51.020;7.772;2023-09-08T13:42:36;97754.00;;;33.20
19666;BMP180;9980;51.020;7.772;2023-09-08T13:45:04;97751.00;;;33.20
19666;BMP180;9980;51.020;7.772;2023-09-08T13:47:31;97754.00;;;33.30
19666;BMP180;9980;51.020;7.772;2023-09-08T13:50:00;97744.00;;;33.30
19666;BMP180;9980;51.020;7.772;2023-09-08T13:52:31;97757.00;;;33.30
19666;BMP180;9980;51.020;7.772;2023-09-08T13:55:03;97755.00;;;33.30
19666;BMP180;9980;51.020;7.772;2023-09-08T13:57:50;97746.00;;;33.30
19666;BMP180;9980;51.020;7.772;2023-09-08T14:00:22;97749.00;;;33.30
19666;BMP180;9980;51.020;7.772;2023-09-08T14:02:51;97744.00;;;33.30
19666;BMP180;9980;51.020;7.772;2023-09-08T14:05:25;97750.00;;;33.40
19666;BMP180;9980;51.020;7.772;2023-09-08T14:07:56;97757.00;;;33.40
19666;BMP180;9980;51.020;7.772;2023-09-08T14:10:34;97747.00;;;33.40
19666;BMP180;9980;51.020;7.772;2023-09-08T14:13:04;97759.00;;;33.40
19666;BMP180;9980;51.020;7.772;2023-09-08T14:15:31;97754.00;;;33.40
19666;BMP180;9980;51.020;7.772;2023-09-08T14:17:58;97749.00;;;33.50
19666;BMP180;9980;51.020;7.772;2023-09-08T14:20:25;97748.00;;;33.50
19666;BMP180;9980;51.020;7.772;2023-09-08T14:22:52;97757.00;;;33.50
19666;BMP180;9980;51.020;7.772;2023-09-08T14:25:19;97741.00;;;33.50
19666;BMP180;9980;51.020;7.772;2023-09-08T14:27:46;97740.00;;;33.50
19666;BMP180;9980;51.020;7.772;2023-09-08T14:30:13;97736.00;;;33.50
19666;BMP180;9980;51.020;7.772;2023-09-08T14:32:40;97753.00;;;33.50
19666;BMP180;9980;51.020;7.772;2023-09-08T14:35:07;97755.00;;;33.50
19666;BMP180;9980;51.020;7.772;2023-09-08T14:37:34;97740.00;;;33.50
19666;BMP180;9980;51.020;7.772;2023-09-08T14:40:01;97747.00;;;33.50
19666;BMP180;9980;51.020;7.772;2023-09-08T14:42:30;97730.00;;;33.50
19666;BMP180;9980;51.020;7.772;2023-09-08T14:44:57;97745.00;;;33.50
19666;BMP180;9980;51.020;7.772;2023-09-08T14:47:24;97733.00;;;33.50
19666;BMP180;9980;51.020;7.772;2023-09-08T14:49:51;97744.00;;;33.50
19666;BMP180;9980;51.020;7.772;2023-09-08T14:52:19;97745.00;;;33.50
19666;BMP180;9980;51.020;7.772;2023-09-08T14:54:47;97735.00;;;33.50
19666;BMP180;9980;51.020;7.772;2023-09-08T14:57:14;97737.00;;;33.40
19666;BMP180;9980;51.020;7.772;2023-09-08T14:59:41;97741.00;;;33.40
19666;BMP180;9980;51.020;7.772;2023-09-08T15:02:08;97738.00;;;33.40
19666;BMP180;9980;51.020;7.772;2023-09-08T15:04:36;97741.00;;;33.40
19666;BMP180;9980;51.020;7.772;2023-09-08T15:07:04;97722.00;;;33.40
19666;BMP180;9980;51.020;7.772;2023-09-08T15:09:30;97731.00;;;33.40
19666;BMP180;9980;51.020;7.772;2023-09-08T15:11:57;97731.00;;;33.40
19666;BMP180;9980;51.020;7.772;2023-09-08T15:14:24;97733.00;;;33.40
19666;BMP180;9980;51.020;7.772;2023-09-08T15:16:51;97726.00;;;33.30
19666;BMP180;9980;51.020;7.772;2023-09-08T15:19:18;97733.00;;;33.30
19666;BMP180;9980;51.020;7.772;2023-09-08T15:21:45;97737.00;;;33.30